sensor_id;sensor_type;location;lat;lon;timestamp;temperature;humidity
1936;DHT22;969;49.892;10.896;2024-03-23T00:55:11;23.10;55.60
1936;DHT22;969;49.892;10.896;2024-03-23T00:57:37;23.10;55.60
1936;DHT22;969;49.892;10.896;2024-03-23T01:00:03;23.10;55.60
1936;DHT22;969;49.892;10.896;2024-03-23T01:02:34;23.10;55.60
1936;DHT22;969;49.892;10.896;2024-03-23T01:04:59;23.00;55.50
1936;DHT22;969;49.892;10.896;2024-03-23T01:07:25;23.00;55.50
1936;DHT22;969;49.892;10.896;2024-03-23T01:09:50;23.00;55.50
1936;DHT22;969;49.892;10.896;2024-03-23T01:12:17;23.00;55.60
1936;DHT22;969;49.892;10.896;2024-03-23T01:14:43;23.00;55.50
1936;DHT22;969;49.892;10.896;2024-03-23T01:17:08;23.10;55.60
1936;DHT22;969;49.892;10.896;2024-03-23T01:19:34;23.00;55.60
1936;DHT22;969;49.892;10.896;2024-03-23T01:22:00;23.00;55.60
1936;DHT22;969;49.892;10.896;2024-03-23T01:24:25;23.00;55.60
1936;DHT22;969;49.892;10.896;2024-03-23T01:26:51;23.00;55.60
1936;DHT22;969;49.892;10.896;2024-03-23T01:29:16;23.00;55.60
1936;DHT22;969;49.892;10.896;2024-03-23T01:31:42;23.00;55.60
1936;DHT22;969;49.892;10.896;2024-03-23T01:34:07;23.00;55.60
1936;DHT22;969;49.892;10.896;2024-03-23T01:36:33;23.00;55.60
1936;DHT22;969;49.892;10.896;2024-03-23T01:38:59;23.00;55.60
1936;DHT22;969;49.892;10.896;2024-03-23T01:41:25;23.00;55.60
1936;DHT22;969;49.892;10.896;2024-03-23T01:43:50;23.00;55.60
1936;DHT22;969;49.892;10.896;2024-03-23T01:46:16;23.00;55.60
1936;DHT22;969;49.892;10.896;2024-03-23T01:48:42;23.00;55.60
1936;DHT22;969;49.892;10.896;2024-03-23T01:51:08;23.00;55.60
1936;DHT22;969;49.892;10.896;2024-03-23T01:53:34;23.00;55.60
1936;DHT22;969;49.892;10.896;2024-03-23T01:56:00;23.00;55.60
1936;DHT22;969;49.892;10.896;2024-03-23T01:58:27;23.00;55.60
1936;DHT22;969;49.892;10.896;2024-03-23T02:00:53;23.00;55.60
1936;DHT22;969;49.892;10.896;2024-03-23T02:03:23;23.00;55.60
1936;DHT22;969;49.892;10.896;2024-03-23T02:05:50;23.00;55.60
1936;DHT22;969;49.892;10.896;2024-03-23T02:08:17;23.00;55.60
1936;DHT22;969;49.892;10.896;2024-03-23T02:10:43;23.00;55.60
1936;DHT22;969;49.892;10.896;2024-03-23T02:13:09;23.00;55.60
1936;DHT22;969;49.892;10.896;2024-03-23T02:15:35;23.00;55.60
1936;DHT22;969;49.892;10.896;2024-03-23T02:18:00;23.00;55.60
1936;DHT22;969;49.892;10.896;2024-03-23T02:20:26;23.00;55.60
1936;DHT22;969;49.892;10.896;2024-03-23T02:22:53;23.00;55.70
1936;DHT22;969;49.892;10.896;2024-03-23T02:25:18;23.00;55.70
1936;DHT22;969;49.892;10.896;2024-03-23T02:27:44;23.00;55.60
1936;DHT22;969;49.892;10.896;2024-03-23T02:30:10;23.00;55.60
1936;DHT22;969;49.892;10.896;2024-03-23T02:32:35;22.90;55.60
1936;DHT22;969;49.892;10.896;2024-03-23T02:35:01;22.90;55.60
1936;DHT22;969;49.892;10.896;2024-03-23T02:37:27;22.90;55.50
1936;DHT22;969;49.892;10.896;2024-03-23T02:39:52;22.90;55.60
1936;DHT22;969;49.892;10.896;2024-03-23T02:42:18;22.90;55.60
1936;DHT22;969;49.892;10.896;2024-03-23T02:44:44;22.90;55.60
1936;DHT22;969;49.892;10.896;2024-03-23T02:47:10;23.00;55.70
1936;DHT22;969;49.892;10.896;2024-03-23T02:49:36;22.90;55.60
1936;DHT22;969;49.892;10.896;2024-03-23T02:52:01;23.00;55.70
1936;DHT22;969;49.892;10.896;2024-03-23T02:54:27;22.90;55.60
1936;DHT22;969;49.892;10.896;2024-03-23T02:56:52;23.00;55.60
1936;DHT22;969;49.892;10.896;2024-03-23T02:59:18;23.00;55.70
1936;DHT22;969;49.892;10.896;2024-03-23T03:01:43;23.00;55.60
1936;DHT22;969;49.892;10.896;2024-03-23T03:04:09;23.00;55.60
1936;DHT22;969;49.892;10.896;2024-03-23T03:06:34;23.00;55.60
1936;DHT22;969;49.892;10.896;2024-03-23T03:09:00;23.00;55.60
1936;DHT22;969;49.892;10.896;2024-03-23T03:11:26;23.00;55.60
1936;DHT22;969;49.892;10.896;2024-03-23T03:13:51;23.00;55.60
1936;DHT22;969;49.892;10.896;2024-03-23T03:16:17;23.00;55.60
1936;DHT22;969;49.892;10.896;2024-03-23T03:18:43;23.00;55.60
1936;DHT22;969;49.892;10.896;2024-03-23T03:21:09;23.00;55.60
1936;DHT22;969;49.892;10.896;2024-03-23T03:23:39;23.00;55.60
1936;DHT22;969;49.892;10.896;2024-03-23T03:26:05;23.00;55.60
1936;DHT22;969;49.892;10.896;2024-03-23T03:28:31;23.00;55.60
1936;DHT22;969;49.892;10.896;2024-03-23T03:31:01;23.00;55.60
1936;DHT22;969;49.892;10.896;2024-03-23T03:33:27;23.00;55.50
1936;DHT22;969;49.892;10.896;2024-03-23T03:35:53;23.00;55.50
1936;DHT22;969;49.892;10.896;2024-03-23T03:38:19;23.00;55.60
1936;DHT22;969;49.892;10.896;2024-03-23T03:40:44;23.00;55.50
1936;DHT22;969;49.892;10.896;2024-03-23T03:43:10;23.00;55.50
1936;DHT22;969;49.892;10.896;2024-03-23T03:45:36;23.00;55.50
1936;DHT22;969;49.892;10.896;2024-03-23T03:48:02;23.00;55.50
1936;DHT22;969;49.892;10.896;2024-03-23T03:50:28;23.00;55.50
1936;DHT22;969;49.892;10.896;2024-03-23T03:52:53;23.00;55.50
1936;DHT22;969;49.892;10.896;2024-03-23T03:55:19;23.00;55.50
1936;DHT22;969;49.892;10.896;2024-03-23T03:57:44;23.00;55.50
1936;DHT22;969;49.892;10.896;2024-03-23T04:00:10;23.10;55.60
1936;DHT22;969;49.892;10.896;2024-03-23T04:02:39;23.00;55.50
1936;DHT22;969;49.892;10.896;2024-03-23T04:05:05;23.00;55.50
1936;DHT22;969;49.892;10.896;2024-03-23T04:07:31;23.00;55.50
1936;DHT22;969;49.892;10.896;2024-03-23T04:09:56;23.00;55.50
1936;DHT22;969;49.892;10.896;2024-03-23T04:12:23;23.00;55.50
1936;DHT22;969;49.892;10.896;2024-03-23T04:14:49;23.10;55.60
1936;DHT22;969;49.892;10.896;2024-03-23T04:17:14;23.00;55.50
1936;DHT22;969;49.892;10.896;2024-03-23T04:19:40;23.00;55.50
1936;DHT22;969;49.892;10.896;2024-03-23T04:22:06;23.10;55.50
1936;DHT22;969;49.892;10.896;2024-03-23T04:24:31;23.00;55.50
1936;DHT22;969;49.892;10.896;2024-03-23T04:26:57;23.10;55.60
1936;DHT22;969;49.892;10.896;2024-03-23T04:29:23;23.10;55.50
1936;DHT22;969;49.892;10.896;2024-03-23T04:31:49;23.10;55.50
1936;DHT22;969;49.892;10.896;2024-03-23T04:34:14;23.10;55.50
1936;DHT22;969;49.892;10.896;2024-03-23T04:36:40;23.10;55.50
1936;DHT22;969;49.892;10.896;2024-03-23T04:39:05;23.10;55.50
1936;DHT22;969;49.892;10.896;2024-03-23T04:41:34;23.00;55.50
1936;DHT22;969;49.892;10.896;2024-03-23T04:44:00;23.10;55.50
1936;DHT22;969;49.892;10.896;2024-03-23T04:46:26;23.10;55.50
1936;DHT22;969;49.892;10.896;2024-03-23T04:48:52;23.10;55.50
1936;DHT22;969;49.892;10.896;2024-03-23T04:51:22;23.10;55.60
1936;DHT22;969;49.892;10.896;2024-03-23T04:53:48;23.10;55.50
1936;DHT22;969;49.892;10.896;2024-03-23T04:56:14;23.10;55.50
1936;DHT22;969;49.892;10.896;2024-03-23T04:58:40;23.10;55.50
1936;DHT22;969;49.892;10.896;2024-03-23T05:01:05;23.10;55.60
1936;DHT22;969;49.892;10.896;2024-03-23T05:03:31;23.10;55.50
1936;DHT22;969;49.892;10.896;2024-03-23T05:05:57;23.10;55.50
1936;DHT22;969;49.892;10.896;2024-03-23T05:08:23;23.10;55.50
1936;DHT22;969;49.892;10.896;2024-03-23T05:10:49;23.10;55.50
1936;DHT22;969;49.892;10.896;2024-03-23T05:13:15;23.10;55.50
1936;DHT22;969;49.892;10.896;2024-03-23T05:15:40;23.10;55.50
1936;DHT22;969;49.892;10.896;2024-03-23T05:18:06;23.10;55.50
1936;DHT22;969;49.892;10.896;2024-03-23T05:20:32;23.10;55.50
1936;DHT22;969;49.892;10.896;2024-03-23T05:22:57;23.10;55.50
1936;DHT22;969;49.892;10.896;2024-03-23T05:25:23;23.10;55.50
1936;DHT22;969;49.892;10.896;2024-03-23T05:27:49;23.10;55.50
1936;DHT22;969;49.892;10.896;2024-03-23T05:30:15;23.10;55.50
1936;DHT22;969;49.892;10.896;2024-03-23T05:32:40;23.10;55.50
1936;DHT22;969;49.892;10.896;2024-03-23T05:35:08;23.10;55.50
1936;DHT22;969;49.892;10.896;2024-03-23T05:37:34;23.10;55.50
1936;DHT22;969;49.892;10.896;2024-03-23T05:40:00;23.10;55.50
1936;DHT22;969;49.892;10.896;2024-03-23T05:42:26;23.10;55.50
1936;DHT22;969;49.892;10.896;2024-03-23T05:44:52;23.10;55.50
1936;DHT22;969;49.892;10.896;2024-03-23T05:47:17;23.10;55.50
1936;DHT22;969;49.892;10.896;2024-03-23T05:49:43;23.10;55.50
1936;DHT22;969;49.892;10.896;2024-03-23T05:52:12;23.00;55.40
1936;DHT22;969;49.892;10.896;2024-03-23T05:54:37;23.10;55.40
1936;DHT22;969;49.892;10.896;2024-03-23T05:57:04;23.10;55.40
1936;DHT22;969;49.892;10.896;2024-03-23T05:59:30;23.00;55.40
1936;DHT22;969;49.892;10.896;2024-03-23T06:01:56;23.00;55.40
1936;DHT22;969;49.892;10.896;2024-03-23T06:04:22;23.00;55.40
1936;DHT22;969;49.892;10.896;2024-03-23T06:06:48;23.00;55.40
1936;DHT22;969;49.892;10.896;2024-03-23T06:09:14;23.00;55.40
1936;DHT22;969;49.892;10.896;2024-03-23T06:11:39;23.00;55.50
1936;DHT22;969;49.892;10.896;2024-03-23T06:14:05;23.00;55.50
1936;DHT22;969;49.892;10.896;2024-03-23T06:16:31;23.00;55.50
1936;DHT22;969;49.892;10.896;2024-03-23T06:18:57;23.00;55.60
1936;DHT22;969;49.892;10.896;2024-03-23T06:21:24;23.00;55.60
1936;DHT22;969;49.892;10.896;2024-03-23T06:23:52;23.00;55.60
1936;DHT22;969;49.892;10.896;2024-03-23T06:26:18;23.00;55.60
1936;DHT22;969;49.892;10.896;2024-03-23T06:28:44;23.00;55.60
1936;DHT22;969;49.892;10.896;2024-03-23T06:31:10;23.00;55.60
1936;DHT22;969;49.892;10.896;2024-03-23T06:33:36;23.00;55.60
1936;DHT22;969;49.892;10.896;2024-03-23T06:36:01;23.00;55.60
1936;DHT22;969;49.892;10.896;2024-03-23T06:38:28;23.00;55.50
1936;DHT22;969;49.892;10.896;2024-03-23T06:40:54;23.00;55.30
1936;DHT22;969;49.892;10.896;2024-03-23T06:43:19;23.00;55.20
1936;DHT22;969;49.892;10.896;2024-03-23T06:45:54;23.00;55.30
1936;DHT22;969;49.892;10.896;2024-03-23T06:48:20;23.00;55.30
1936;DHT22;969;49.892;10.896;2024-03-23T06:50:46;23.00;55.30
1936;DHT22;969;49.892;10.896;2024-03-23T06:53:13;23.00;55.30
1936;DHT22;969;49.892;10.896;2024-03-23T06:55:39;23.00;55.30
1936;DHT22;969;49.892;10.896;2024-03-23T06:58:04;23.00;55.30
1936;DHT22;969;49.892;10.896;2024-03-23T07:00:30;23.00;55.30
1936;DHT22;969;49.892;10.896;2024-03-23T07:02:57;23.00;55.30
1936;DHT22;969;49.892;10.896;2024-03-23T07:05:23;23.00;55.30
1936;DHT22;969;49.892;10.896;2024-03-23T07:07:48;23.00;55.20
1936;DHT22;969;49.892;10.896;2024-03-23T07:10:14;23.00;55.10
1936;DHT22;969;49.892;10.896;2024-03-23T07:12:40;23.00;55.00
1936;DHT22;969;49.892;10.896;2024-03-23T07:15:05;23.00;55.00
1936;DHT22;969;49.892;10.896;2024-03-23T07:17:31;23.00;55.00
1936;DHT22;969;49.892;10.896;2024-03-23T07:19:58;23.00;55.00
1936;DHT22;969;49.892;10.896;2024-03-23T07:22:23;23.00;55.00
1936;DHT22;969;49.892;10.896;2024-03-23T07:24:49;23.00;55.00
1936;DHT22;969;49.892;10.896;2024-03-23T07:27:15;23.00;55.00
1936;DHT22;969;49.892;10.896;2024-03-23T07:29:40;23.00;55.00
1936;DHT22;969;49.892;10.896;2024-03-23T07:32:06;23.00;55.00
1936;DHT22;969;49.892;10.896;2024-03-23T07:34:32;23.00;55.00
1936;DHT22;969;49.892;10.896;2024-03-23T07:36:57;23.00;55.00
1936;DHT22;969;49.892;10.896;2024-03-23T07:39:23;23.00;55.00
1936;DHT22;969;49.892;10.896;2024-03-23T07:41:48;23.00;55.00
1936;DHT22;969;49.892;10.896;2024-03-23T07:44:14;23.00;55.00
1936;DHT22;969;49.892;10.896;2024-03-23T07:46:39;22.90;54.90
1936;DHT22;969;49.892;10.896;2024-03-23T07:49:06;22.90;54.90
1936;DHT22;969;49.892;10.896;2024-03-23T07:51:32;22.90;55.00
1936;DHT22;969;49.892;10.896;2024-03-23T07:53:58;23.00;55.00
1936;DHT22;969;49.892;10.896;2024-03-23T07:56:23;22.90;55.00
1936;DHT22;969;49.892;10.896;2024-03-23T07:58:49;22.90;55.10
1936;DHT22;969;49.892;10.896;2024-03-23T08:01:16;23.00;55.20
1936;DHT22;969;49.892;10.896;2024-03-23T08:03:43;22.90;55.10
1936;DHT22;969;49.892;10.896;2024-03-23T08:06:12;23.00;55.30
1936;DHT22;969;49.892;10.896;2024-03-23T08:08:39;23.00;55.30
1936;DHT22;969;49.892;10.896;2024-03-23T08:11:05;23.00;55.30
1936;DHT22;969;49.892;10.896;2024-03-23T08:13:31;23.00;55.30
1936;DHT22;969;49.892;10.896;2024-03-23T08:15:58;23.00;55.30
1936;DHT22;969;49.892;10.896;2024-03-23T08:18:24;23.00;55.30
1936;DHT22;969;49.892;10.896;2024-03-23T08:20:57;23.00;55.30
1936;DHT22;969;49.892;10.896;2024-03-23T08:23:27;23.00;55.30
1936;DHT22;969;49.892;10.896;2024-03-23T08:25:58;23.00;55.30
1936;DHT22;969;49.892;10.896;2024-03-23T08:28:24;23.00;55.30
1936;DHT22;969;49.892;10.896;2024-03-23T08:30:49;23.00;55.30
1936;DHT22;969;49.892;10.896;2024-03-23T08:33:15;23.00;55.30
1936;DHT22;969;49.892;10.896;2024-03-23T08:35:41;23.00;55.30
1936;DHT22;969;49.892;10.896;2024-03-23T08:38:07;23.00;55.30
1936;DHT22;969;49.892;10.896;2024-03-23T08:40:33;23.00;55.30
1936;DHT22;969;49.892;10.896;2024-03-23T08:42:58;23.00;55.30
1936;DHT22;969;49.892;10.896;2024-03-23T08:45:25;23.00;55.30
1936;DHT22;969;49.892;10.896;2024-03-23T08:47:51;23.00;55.30
1936;DHT22;969;49.892;10.896;2024-03-23T08:50:17;23.00;55.30
1936;DHT22;969;49.892;10.896;2024-03-23T08:52:42;23.00;55.30
1936;DHT22;969;49.892;10.896;2024-03-23T08:55:08;23.00;55.30
1936;DHT22;969;49.892;10.896;2024-03-23T08:57:35;23.00;55.30
1936;DHT22;969;49.892;10.896;2024-03-23T09:00:00;23.00;55.30
1936;DHT22;969;49.892;10.896;2024-03-23T09:02:26;23.00;55.30
1936;DHT22;969;49.892;10.896;2024-03-23T09:04:52;23.00;55.20
1936;DHT22;969;49.892;10.896;2024-03-23T09:07:17;23.00;55.30
1936;DHT22;969;49.892;10.896;2024-03-23T09:09:43;23.00;55.30
1936;DHT22;969;49.892;10.896;2024-03-23T09:12:09;23.00;55.30
1936;DHT22;969;49.892;10.896;2024-03-23T09:14:34;23.00;55.30
1936;DHT22;969;49.892;10.896;2024-03-23T09:17:00;23.00;55.30
1936;DHT22;969;49.892;10.896;2024-03-23T09:19:29;23.00;55.30
1936;DHT22;969;49.892;10.896;2024-03-23T09:21:55;23.00;55.30
1936;DHT22;969;49.892;10.896;2024-03-23T09:24:21;23.00;55.30
1936;DHT22;969;49.892;10.896;2024-03-23T09:26:46;23.00;55.40
1936;DHT22;969;49.892;10.896;2024-03-23T09:29:12;23.00;55.40
1936;DHT22;969;49.892;10.896;2024-03-23T09:31:37;23.00;55.40
1936;DHT22;969;49.892;10.896;2024-03-23T09:34:04;23.00;55.40
1936;DHT22;969;49.892;10.896;2024-03-23T09:36:29;23.00;55.40
1936;DHT22;969;49.892;10.896;2024-03-23T09:38:55;23.00;55.40
1936;DHT22;969;49.892;10.896;2024-03-23T09:41:20;23.00;55.40
1936;DHT22;969;49.892;10.896;2024-03-23T09:43:46;23.10;55.50
1936;DHT22;969;49.892;10.896;2024-03-23T09:46:14;23.00;55.40
1936;DHT22;969;49.892;10.896;2024-03-23T09:48:40;23.00;55.40
1936;DHT22;969;49.892;10.896;2024-03-23T09:51:06;23.00;55.40
1936;DHT22;969;49.892;10.896;2024-03-23T09:53:34;23.10;55.50
1936;DHT22;969;49.892;10.896;2024-03-23T09:56:00;23.10;55.40
1936;DHT22;969;49.892;10.896;2024-03-23T09:58:25;23.10;55.50
1936;DHT22;969;49.892;10.896;2024-03-23T10:00:51;23.10;55.50
1936;DHT22;969;49.892;10.896;2024-03-23T10:03:17;23.10;55.40
1936;DHT22;969;49.892;10.896;2024-03-23T10:05:42;23.10;55.40
1936;DHT22;969;49.892;10.896;2024-03-23T10:10:44;23.10;55.40
1936;DHT22;969;49.892;10.896;2024-03-23T10:13:10;23.10;55.50
1936;DHT22;969;49.892;10.896;2024-03-23T10:15:38;23.10;55.50
1936;DHT22;969;49.892;10.896;2024-03-23T10:18:30;23.10;55.40
1936;DHT22;969;49.892;10.896;2024-03-23T10:21:10;23.10;55.50
1936;DHT22;969;49.892;10.896;2024-03-23T10:23:40;23.10;55.50
1936;DHT22;969;49.892;10.896;2024-03-23T10:31:17;23.10;55.50
1936;DHT22;969;49.892;10.896;2024-03-23T10:33:48;23.10;55.50
1936;DHT22;969;49.892;10.896;2024-03-23T10:36:15;23.10;55.50
1936;DHT22;969;49.892;10.896;2024-03-23T10:38:42;23.10;55.50
1936;DHT22;969;49.892;10.896;2024-03-23T10:41:09;23.10;55.50
1936;DHT22;969;49.892;10.896;2024-03-23T10:43:38;23.10;55.50
1936;DHT22;969;49.892;10.896;2024-03-23T10:46:05;23.10;55.50
1936;DHT22;969;49.892;10.896;2024-03-23T10:48:34;23.10;55.50
1936;DHT22;969;49.892;10.896;2024-03-23T10:51:00;23.10;55.50
1936;DHT22;969;49.892;10.896;2024-03-23T10:53:27;23.10;55.50
1936;DHT22;969;49.892;10.896;2024-03-23T10:55:55;23.10;55.50
1936;DHT22;969;49.892;10.896;2024-03-23T10:58:31;23.10;55.50
1936;DHT22;969;49.892;10.896;2024-03-23T11:00:57;23.10;55.50
1936;DHT22;969;49.892;10.896;2024-03-23T11:03:37;23.20;55.60
1936;DHT22;969;49.892;10.896;2024-03-23T11:06:04;23.20;55.50
1936;DHT22;969;49.892;10.896;2024-03-23T11:11:18;23.20;55.50
1936;DHT22;969;49.892;10.896;2024-03-23T11:13:51;23.20;55.50
1936;DHT22;969;49.892;10.896;2024-03-23T11:16:21;23.20;55.50
1936;DHT22;969;49.892;10.896;2024-03-23T11:18:47;23.20;55.50
1936;DHT22;969;49.892;10.896;2024-03-23T11:24:16;23.20;55.40
1936;DHT22;969;49.892;10.896;2024-03-23T11:26:42;23.20;55.50
1936;DHT22;969;49.892;10.896;2024-03-23T11:29:12;23.20;55.40
1936;DHT22;969;49.892;10.896;2024-03-23T11:31:38;23.20;55.40
1936;DHT22;969;49.892;10.896;2024-03-23T11:34:06;23.20;55.40
1936;DHT22;969;49.892;10.896;2024-03-23T11:36:32;23.20;55.40
1936;DHT22;969;49.892;10.896;2024-03-23T11:38:58;23.30;55.50
1936;DHT22;969;49.892;10.896;2024-03-23T11:41:23;23.30;55.50
1936;DHT22;969;49.892;10.896;2024-03-23T11:43:50;23.30;56.10
1936;DHT22;969;49.892;10.896;2024-03-23T11:46:24;23.30;55.50
1936;DHT22;969;49.892;10.896;2024-03-23T11:48:50;23.30;55.50
1936;DHT22;969;49.892;10.896;2024-03-23T11:51:20;23.30;55.50
1936;DHT22;969;49.892;10.896;2024-03-23T11:53:45;23.30;55.50
1936;DHT22;969;49.892;10.896;2024-03-23T11:56:11;23.30;55.50
1936;DHT22;969;49.892;10.896;2024-03-23T11:58:36;23.30;55.50
1936;DHT22;969;49.892;10.896;2024-03-23T12:01:03;23.30;55.50
1936;DHT22;969;49.892;10.896;2024-03-23T12:03:30;23.30;55.50
1936;DHT22;969;49.892;10.896;2024-03-23T12:05:57;23.30;55.50
1936;DHT22;969;49.892;10.896;2024-03-23T12:08:45;23.30;55.50
1936;DHT22;969;49.892;10.896;2024-03-23T12:11:17;23.30;55.50
1936;DHT22;969;49.892;10.896;2024-03-23T12:13:44;23.30;55.50
1936;DHT22;969;49.892;10.896;2024-03-23T12:18:38;23.30;55.50
1936;DHT22;969;49.892;10.896;2024-03-23T12:21:04;23.30;55.50
1936;DHT22;969;49.892;10.896;2024-03-23T12:23:29;23.30;55.50
1936;DHT22;969;49.892;10.896;2024-03-23T12:25:55;23.30;55.50
1936;DHT22;969;49.892;10.896;2024-03-23T12:28:20;23.30;55.50
1936;DHT22;969;49.892;10.896;2024-03-23T12:30:46;23.30;55.50
1936;DHT22;969;49.892;10.896;2024-03-23T12:33:11;23.30;55.50
1936;DHT22;969;49.892;10.896;2024-03-23T12:35:37;23.30;55.50
1936;DHT22;969;49.892;10.896;2024-03-23T12:38:03;23.30;55.50
1936;DHT22;969;49.892;10.896;2024-03-23T12:40:28;23.30;55.50
1936;DHT22;969;49.892;10.896;2024-03-23T12:42:55;23.30;55.50
1936;DHT22;969;49.892;10.896;2024-03-23T12:45:21;23.30;55.50
1936;DHT22;969;49.892;10.896;2024-03-23T12:47:47;23.30;55.50
1936;DHT22;969;49.892;10.896;2024-03-23T12:50:13;23.30;55.50
1936;DHT22;969;49.892;10.896;2024-03-23T12:52:38;23.30;55.50
1936;DHT22;969;49.892;10.896;2024-03-23T12:55:04;23.30;55.50
1936;DHT22;969;49.892;10.896;2024-03-23T12:57:33;23.30;55.50
1936;DHT22;969;49.892;10.896;2024-03-23T12:59:59;23.30;55.50
1936;DHT22;969;49.892;10.896;2024-03-23T13:02:25;23.30;55.50
1936;DHT22;969;49.892;10.896;2024-03-23T13:04:52;23.30;55.50
1936;DHT22;969;49.892;10.896;2024-03-23T13:07:18;23.30;55.50
1936;DHT22;969;49.892;10.896;2024-03-23T13:09:44;23.30;55.50
1936;DHT22;969;49.892;10.896;2024-03-23T13:12:11;23.30;55.50
1936;DHT22;969;49.892;10.896;2024-03-23T13:14:39;23.30;55.50
1936;DHT22;969;49.892;10.896;2024-03-23T13:17:05;23.30;55.50
1936;DHT22;969;49.892;10.896;2024-03-23T13:19:31;23.30;55.50
1936;DHT22;969;49.892;10.896;2024-03-23T13:21:58;23.30;55.50
1936;DHT22;969;49.892;10.896;2024-03-23T13:24:27;23.30;55.50
1936;DHT22;969;49.892;10.896;2024-03-23T13:26:54;23.30;55.50
1936;DHT22;969;49.892;10.896;2024-03-23T13:29:20;23.30;55.40
1936;DHT22;969;49.892;10.896;2024-03-23T13:31:47;23.30;55.50
1936;DHT22;969;49.892;10.896;2024-03-23T13:34:13;23.30;55.40
1936;DHT22;969;49.892;10.896;2024-03-23T13:36:46;23.30;55.40
1936;DHT22;969;49.892;10.896;2024-03-23T13:39:13;23.30;55.40
1936;DHT22;969;49.892;10.896;2024-03-23T13:41:43;23.30;55.40
1936;DHT22;969;49.892;10.896;2024-03-23T13:44:10;23.30;55.40
1936;DHT22;969;49.892;10.896;2024-03-23T13:46:36;23.30;55.40
1936;DHT22;969;49.892;10.896;2024-03-23T13:49:02;23.30;55.40
1936;DHT22;969;49.892;10.896;2024-03-23T13:51:28;23.30;55.40
1936;DHT22;969;49.892;10.896;2024-03-23T13:53:54;23.30;55.40
1936;DHT22;969;49.892;10.896;2024-03-23T13:56:20;23.30;55.40
1936;DHT22;969;49.892;10.896;2024-03-23T13:58:46;23.30;55.40
1936;DHT22;969;49.892;10.896;2024-03-23T14:01:15;23.30;55.40
1936;DHT22;969;49.892;10.896;2024-03-23T14:03:42;23.30;55.40
1936;DHT22;969;49.892;10.896;2024-03-23T14:06:08;23.40;55.50
1936;DHT22;969;49.892;10.896;2024-03-23T14:08:35;23.30;55.40
1936;DHT22;969;49.892;10.896;2024-03-23T14:11:08;23.30;55.40
1936;DHT22;969;49.892;10.896;2024-03-23T14:13:34;23.30;55.40
1936;DHT22;969;49.892;10.896;2024-03-23T14:16:00;23.30;55.30
1936;DHT22;969;49.892;10.896;2024-03-23T14:18:26;23.30;55.30
1936;DHT22;969;49.892;10.896;2024-03-23T14:20:55;23.30;55.30
1936;DHT22;969;49.892;10.896;2024-03-23T14:23:25;23.30;55.30
1936;DHT22;969;49.892;10.896;2024-03-23T14:25:53;23.30;55.30
1936;DHT22;969;49.892;10.896;2024-03-23T14:28:20;23.30;55.30
1936;DHT22;969;49.892;10.896;2024-03-23T14:30:45;23.30;55.30
1936;DHT22;969;49.892;10.896;2024-03-23T14:33:11;23.30;55.30
1936;DHT22;969;49.892;10.896;2024-03-23T14:35:38;23.30;55.30
1936;DHT22;969;49.892;10.896;2024-03-23T14:38:04;23.30;55.30
1936;DHT22;969;49.892;10.896;2024-03-23T14:40:29;23.30;55.30
1936;DHT22;969;49.892;10.896;2024-03-23T14:42:55;23.30;55.30
1936;DHT22;969;49.892;10.896;2024-03-23T14:45:21;23.30;55.20
1936;DHT22;969;49.892;10.896;2024-03-23T14:47:47;23.30;55.20
1936;DHT22;969;49.892;10.896;2024-03-23T14:50:13;23.30;55.20
1936;DHT22;969;49.892;10.896;2024-03-23T14:52:42;23.30;55.20
1936;DHT22;969;49.892;10.896;2024-03-23T14:55:08;23.30;55.20
1936;DHT22;969;49.892;10.896;2024-03-23T14:57:34;23.30;55.20
1936;DHT22;969;49.892;10.896;2024-03-23T15:00:00;23.30;55.20
1936;DHT22;969;49.892;10.896;2024-03-23T15:02:26;23.30;55.10
1936;DHT22;969;49.892;10.896;2024-03-23T15:04:53;23.30;55.10
1936;DHT22;969;49.892;10.896;2024-03-23T15:07:19;23.30;55.20
1936;DHT22;969;49.892;10.896;2024-03-23T15:09:45;23.30;55.10
1936;DHT22;969;49.892;10.896;2024-03-23T15:12:10;23.30;55.10
1936;DHT22;969;49.892;10.896;2024-03-23T15:14:37;23.30;55.20
1936;DHT22;969;49.892;10.896;2024-03-23T15:17:02;23.30;55.20
1936;DHT22;969;49.892;10.896;2024-03-23T15:19:32;23.30;55.20
1936;DHT22;969;49.892;10.896;2024-03-23T15:21:58;23.30;55.20
1936;DHT22;969;49.892;10.896;2024-03-23T15:24:23;23.30;55.10
1936;DHT22;969;49.892;10.896;2024-03-23T15:26:49;23.30;55.20
1936;DHT22;969;49.892;10.896;2024-03-23T15:29:17;23.30;55.20
1936;DHT22;969;49.892;10.896;2024-03-23T15:31:43;23.30;55.20
1936;DHT22;969;49.892;10.896;2024-03-23T15:34:09;23.30;55.20
1936;DHT22;969;49.892;10.896;2024-03-23T15:36:38;23.30;55.20
1936;DHT22;969;49.892;10.896;2024-03-23T15:39:06;23.30;55.20
1936;DHT22;969;49.892;10.896;2024-03-23T15:41:32;23.30;55.10
1936;DHT22;969;49.892;10.896;2024-03-23T15:43:59;23.30;55.10
1936;DHT22;969;49.892;10.896;2024-03-23T15:46:25;23.30;55.10
1936;DHT22;969;49.892;10.896;2024-03-23T15:48:50;23.30;55.10
1936;DHT22;969;49.892;10.896;2024-03-23T15:51:16;23.30;55.10
1936;DHT22;969;49.892;10.896;2024-03-23T15:53:43;23.30;55.10
1936;DHT22;969;49.892;10.896;2024-03-23T15:56:09;23.30;55.10
1936;DHT22;969;49.892;10.896;2024-03-23T15:58:35;23.30;55.10
1936;DHT22;969;49.892;10.896;2024-03-23T16:01:05;23.30;55.10
1936;DHT22;969;49.892;10.896;2024-03-23T16:03:32;23.30;55.10
1936;DHT22;969;49.892;10.896;2024-03-23T16:06:00;23.20;55.10
1936;DHT22;969;49.892;10.896;2024-03-23T16:08:26;23.20;55.10
1936;DHT22;969;49.892;10.896;2024-03-23T16:10:52;23.20;55.10
1936;DHT22;969;49.892;10.896;2024-03-23T16:13:18;23.20;55.10
1936;DHT22;969;49.892;10.896;2024-03-23T16:15:44;23.20;55.10
1936;DHT22;969;49.892;10.896;2024-03-23T16:18:10;23.20;55.20
1936;DHT22;969;49.892;10.896;2024-03-23T16:20:36;23.20;55.20
1936;DHT22;969;49.892;10.896;2024-03-23T16:23:02;23.20;55.20
1936;DHT22;969;49.892;10.896;2024-03-23T16:25:28;23.20;55.10
1936;DHT22;969;49.892;10.896;2024-03-23T16:27:54;23.20;55.20
1936;DHT22;969;49.892;10.896;2024-03-23T16:30:20;23.20;55.10
1936;DHT22;969;49.892;10.896;2024-03-23T16:32:49;23.20;55.20
1936;DHT22;969;49.892;10.896;2024-03-23T16:35:15;23.20;55.20
1936;DHT22;969;49.892;10.896;2024-03-23T16:37:41;23.20;55.20
1936;DHT22;969;49.892;10.896;2024-03-23T16:40:07;23.20;55.20
1936;DHT22;969;49.892;10.896;2024-03-23T16:42:35;23.20;55.20
1936;DHT22;969;49.892;10.896;2024-03-23T16:45:00;23.20;55.20
1936;DHT22;969;49.892;10.896;2024-03-23T16:47:26;23.20;55.20
1936;DHT22;969;49.892;10.896;2024-03-23T16:49:53;23.20;55.20
1936;DHT22;969;49.892;10.896;2024-03-23T16:52:18;23.20;55.20
1936;DHT22;969;49.892;10.896;2024-03-23T16:54:44;23.20;55.20
1936;DHT22;969;49.892;10.896;2024-03-23T16:57:09;23.20;55.20
1936;DHT22;969;49.892;10.896;2024-03-23T16:59:35;23.20;55.20
1936;DHT22;969;49.892;10.896;2024-03-23T17:02:01;23.20;55.20
1936;DHT22;969;49.892;10.896;2024-03-23T17:04:26;23.20;55.20
1936;DHT22;969;49.892;10.896;2024-03-23T17:06:52;23.20;55.20